Time;durP1;ratioP1;P1;durP2;ratioP2;P2;SDS_P1;SDS_P2;PMS_P1;PMS_P2;Temp;Humidity;BMP_temperature;BMP_pressure;BME280_temperature;BME280_humidity;BME280_pressure;Samples;Min_cycle;Max_cycle;Signal;HPM_P1;HPM_P2
2021/12/25 00:04:34;;;;;;;12.60;7.50;;;;;;;-0.31;91.35;97274.70;421567;1312;111200;-40
2021/12/25 00:14:37;;;;;;;12.20;8.10;;;;;;;-0.42;91.06;97309.62;421685;1312;108896;-39
2021/12/25 00:34:45;;;;;;;25.30;13.50;;;;;;;-0.64;90.64;97334.58;421414;1312;109014;-40
2021/12/25 00:44:48;;;;;;;20.60;13.20;;;;;;;-0.74;90.95;97354.45;421394;1312;97996;-43
2021/12/25 00:54:52;;;;;;;22.90;11.90;;;;;;;-0.74;90.79;97370.77;420389;1312;110990;-40
2021/12/25 01:04:57;;;;;;;8.10;4.20;;;;;;;-0.99;90.13;97409.91;421180;1309;109054;-40
2021/12/25 01:15:03;;;;;;;4.40;3.20;;;;;;;-1.40;90.00;97439.01;421455;1315;98003;-40
2021/12/25 01:56:15;;;;;;;4.40;2.50;;;;;;;-2.29;88.96;97532.57;421449;1316;108872;-40
2021/12/25 02:06:23;;;;;;;6.60;2.00;;;;;;;-2.34;88.87;97535.11;421609;1312;96772;-40
2021/12/25 02:16:35;;;;;;;5.50;1.70;;;;;;;-2.64;87.24;97557.49;422206;1299;110282;-40
2021/12/25 02:26:43;;;;;;;2.80;1.60;;;;;;;-2.87;86.60;97573.13;421384;1313;107223;-39
2021/12/25 02:36:47;;;;;;;7.90;2.00;;;;;;;-3.05;87.01;97598.12;421443;1315;96752;-39
2021/12/25 02:46:54;;;;;;;4.70;1.30;;;;;;;-3.11;86.83;97624.21;421513;1313;98268;-39
2021/12/25 02:56:57;;;;;;;3.60;2.10;;;;;;;-3.15;86.38;97636.70;421265;1313;108785;-40
2021/12/25 03:07:01;;;;;;;8.00;2.80;;;;;;;-3.26;86.38;97647.10;421609;1315;97991;-40
2021/12/25 03:17:06;;;;;;;4.20;2.30;;;;;;;-3.45;86.34;97660.91;421521;1315;98067;-41
2021/12/25 03:27:10;;;;;;;3.10;2.40;;;;;;;-3.59;86.09;97671.73;421552;1315;107880;-40
2021/12/25 03:37:13;;;;;;;3.30;2.10;;;;;;;-3.64;86.14;97674.17;420500;1317;96759;-40
2021/12/25 04:18:04;;;;;;;7.50;2.90;;;;;;;-4.44;84.72;97747.90;420663;1309;108665;-39
2021/12/25 05:09:23;;;;;;;7.80;3.60;;;;;;;-5.20;84.58;97830.47;420601;1311;111193;-40
2021/12/25 05:19:27;;;;;;;8.60;2.40;;;;;;;-5.35;84.54;97845.70;420723;1312;98087;-40
2021/12/25 05:29:33;;;;;;;19.80;7.20;;;;;;;-5.39;84.54;97872.17;420246;1312;97562;-39
2021/12/25 05:39:39;;;;;;;45.50;15.80;;;;;;;-5.38;84.55;97898.77;420616;1312;111343;-39
2021/12/25 05:49:43;;;;;;;10.00;3.30;;;;;;;-5.47;84.61;97911.45;420733;1310;109137;-39
2021/12/25 05:59:46;;;;;;;7.90;3.30;;;;;;;-5.65;84.53;97920.20;420865;1313;98114;-39
2021/12/25 06:09:50;;;;;;;2.90;1.80;;;;;;;-5.77;84.46;97930.60;420699;1312;108906;-39
2021/12/25 06:19:54;;;;;;;7.40;3.20;;;;;;;-5.83;84.19;97940.41;420676;1312;97919;-38
2021/12/25 06:29:57;;;;;;;19.90;7.20;;;;;;;-5.88;84.27;97948.09;420785;1314;110798;-39
2021/12/25 06:40:01;;;;;;;25.90;9.60;;;;;;;-5.91;84.24;97965.05;420452;1312;107784;-39
2021/12/25 06:50:08;;;;;;;17.30;9.70;;;;;;;-5.81;84.29;97968.08;420739;1310;98066;-40
2021/12/25 07:00:14;;;;;;;4.70;2.90;;;;;;;-5.85;84.09;97960.35;420742;1310;108889;-39
2021/12/25 07:10:18;;;;;;;5.50;3.20;;;;;;;-5.86;84.15;97966.25;416611;1311;5508234;-39
2021/12/25 07:20:22;;;;;;;21.50;6.30;;;;;;;-5.78;84.03;97988.58;420508;1312;109804;-39
2021/12/25 07:40:43;;;;;;;29.50;12.90;;;;;;;-5.59;83.94;98024.06;420684;1313;98076;-39
2021/12/25 07:50:48;;;;;;;18.00;11.20;;;;;;;-5.51;83.92;98025.55;420242;1312;108972;-40
2021/12/25 08:10:56;;;;;;;18.20;7.50;;;;;;;-5.07;84.00;98027.83;420656;1311;111145;-40
2021/12/25 08:21:04;;;;;;;19.20;8.40;;;;;;;-5.11;83.75;98042.45;420831;1310;108905;-39
2021/12/25 08:31:08;;;;;;;24.60;12.20;;;;;;;-5.04;83.81;98049.36;420657;1310;97955;-40
2021/12/25 08:41:11;;;;;;;17.30;8.80;;;;;;;-4.88;83.72;98063.50;420679;1313;108932;-40
2021/12/25 08:51:15;;;;;;;26.00;13.00;;;;;;;-4.84;83.75;98067.41;420668;1309;98040;-39
2021/12/25 09:01:19;;;;;;;18.10;10.00;;;;;;;-4.95;83.53;98074.36;420642;1309;111172;-42
2021/12/25 09:11:24;;;;;;;10.60;6.60;;;;;;;-4.83;83.67;98087.63;420741;1311;108880;-40
2021/12/25 09:21:28;;;;;;;40.80;19.70;;;;;;;-4.65;83.58;98099.67;420686;1312;98518;-40
2021/12/25 09:31:32;;;;;;;40.80;17.90;;;;;;;-4.39;83.51;98097.33;420570;1310;109088;-41
2021/12/25 09:41:37;;;;;;;20.60;9.80;;;;;;;-4.14;83.51;98089.02;420572;1312;98038;-40
2021/12/25 09:51:42;;;;;;;30.30;11.70;;;;;;;-3.71;83.33;98089.42;420842;1310;97984;-39
2021/12/25 10:01:48;;;;;;;30.00;11.50;;;;;;;-3.64;82.77;98090.80;420721;1309;98454;-40
2021/12/25 10:11:58;;;;;;;27.70;11.90;;;;;;;-3.46;83.10;98102.54;420675;1311;107785;-39
2021/12/25 10:22:05;;;;;;;20.80;8.40;;;;;;;-3.33;82.31;98099.42;420404;1312;97954;-41
2021/12/25 10:32:14;;;;;;;16.60;7.20;;;;;;;-3.24;82.44;98087.26;421201;1313;111207;-39
2021/12/25 10:42:22;;;;;;;13.70;5.90;;;;;;;-3.43;82.05;98084.36;420366;1312;108893;-40
2021/12/25 11:02:32;;;;;;;19.10;4.70;;;;;;;-3.59;81.83;98078.04;420240;1311;111129;-42
2021/12/25 11:12:39;;;;;;;12.90;4.80;;;;;;;-3.79;81.92;98076.02;421198;1310;108997;-40
2021/12/25 11:22:45;;;;;;;11.20;4.60;;;;;;;-3.90;81.81;98065.84;421358;1310;98002;-40
2021/12/25 11:32:52;;;;;;;12.10;5.00;;;;;;;-3.82;81.81;98061.95;421425;1310;108850;-40
2021/12/25 11:42:59;;;;;;;10.90;5.10;;;;;;;-3.72;81.85;98066.29;421440;1310;96778;-39
2021/12/25 11:53:04;;;;;;;13.50;5.30;;;;;;;-3.77;81.82;98065.54;421250;1309;97973;-40
2021/12/25 12:03:30;;;;;;;20.60;7.00;;;;;;;-3.68;81.60;98071.05;420683;1310;111622;-40
2021/12/25 12:13:34;;;;;;;41.80;12.70;;;;;;;-3.58;81.48;98081.35;421189;1311;108962;-40
2021/12/25 12:33:45;;;;;;;33.80;12.40;;;;;;;-3.86;81.34;98094.67;421159;1309;111617;-40
2021/12/25 12:44:03;;;;;;;62.80;21.80;;;;;;;-4.05;81.27;98111.88;421156;1309;98649;-40
2021/12/25 12:54:07;;;;;;;52.00;18.40;;;;;;;-4.18;81.32;98109.39;421177;1310;97967;-41
2021/12/25 13:04:12;;;;;;;89.10;33.70;;;;;;;-4.31;81.26;98118.24;421255;1310;111118;-43
2021/12/25 13:14:16;;;;;;;90.20;31.00;;;;;;;-4.33;81.54;98124.58;421281;1309;97994;-40
2021/12/25 13:24:20;;;;;;;47.20;21.00;;;;;;;-4.22;81.31;98130.96;420446;1312;97939;-40
2021/12/25 13:34:24;;;;;;;90.50;32.40;;;;;;;-4.10;81.36;98135.59;421266;1309;109822;-40
2021/12/25 13:44:33;;;;;;;104.80;36.30;;;;;;;-4.10;81.23;98141.11;421275;1310;109184;-40
2021/12/25 13:54:39;;;;;;;114.00;38.90;;;;;;;-4.11;81.41;98151.42;421300;1312;96777;-41
2021/12/25 14:04:46;;;;;;;97.00;34.20;;;;;;;-4.33;81.34;98155.91;421208;1312;110947;-40
2021/12/25 14:14:50;;;;;;;76.00;22.80;;;;;;;-4.53;81.47;98167.29;421118;1310;108905;-40
2021/12/25 14:24:54;;;;;;;83.90;34.50;;;;;;;-4.69;81.45;98171.20;421344;1312;98027;-40
2021/12/25 14:34:59;;;;;;;117.40;47.20;;;;;;;-4.85;81.56;98178.39;421351;1311;100260;-40
2021/12/25 14:45:27;;;;;;;65.10;32.30;;;;;;;-5.05;81.65;98180.95;421321;1313;109197;-40
2021/12/25 14:55:33;;;;;;;62.10;31.00;;;;;;;-5.15;81.57;98175.38;421152;1311;97945;-39
2021/12/25 15:05:37;;;;;;;49.40;23.10;;;;;;;-5.25;81.55;98189.83;421437;1310;111052;-40
2021/12/25 15:15:47;;;;;;;48.70;22.40;;;;;;;-5.28;81.71;98195.66;416599;1314;5390085;-39
2021/12/25 15:36:12;;;;;;;39.00;17.50;;;;;;;-5.46;81.59;98214.64;421224;1310;108895;-40
2021/12/25 15:46:17;;;;;;;29.20;13.50;;;;;;;-5.57;81.68;98216.52;421333;1312;98224;-40
2021/12/25 15:56:21;;;;;;;27.30;13.60;;;;;;;-5.76;81.53;98215.14;421187;1309;111154;-40
2021/12/25 16:06:25;;;;;;;75.20;32.80;;;;;;;-6.16;81.26;98226.81;421397;1312;109313;-40
2021/12/25 16:16:30;;;;;;;103.60;46.80;;;;;;;-6.64;81.31;98238.31;421276;1309;97961;-40
2021/12/25 16:26:34;;;;;;;102.90;42.90;;;;;;;-7.00;81.29;98246.38;421450;1309;108956;-40
2021/12/25 16:36:37;;;;;;;137.40;56.90;;;;;;;-7.20;81.52;98254.70;421132;1309;98048;-41
2021/12/25 16:46:41;;;;;;;184.00;71.40;;;;;;;-7.45;81.46;98265.48;421634;1313;111209;-39
2021/12/25 16:56:47;;;;;;;168.10;70.50;;;;;;;-7.76;81.29;98275.21;421379;1309;108781;-38
2021/12/25 17:06:51;;;;;;;171.10;77.50;;;;;;;-7.90;81.48;98290.06;421633;1309;97945;-39
2021/12/25 17:16:55;;;;;;;182.10;74.60;;;;;;;-7.94;81.63;98289.15;421583;1309;108935;-39
2021/12/25 17:26:59;;;;;;;192.00;83.90;;;;;;;-8.08;81.18;98297.46;421538;1309;97585;-39
2021/12/25 17:37:07;;;;;;;222.00;93.40;;;;;;;-8.23;81.28;98307.19;421359;1309;111761;-39
2021/12/25 17:47:11;;;;;;;233.90;101.10;;;;;;;-8.34;81.49;98301.59;421541;1309;109413;-39
2021/12/25 17:57:13;;;;;;;227.70;103.00;;;;;;;-8.42;81.40;98307.15;421405;1309;97530;-39
2021/12/25 18:07:17;;;;;;;255.50;112.30;;;;;;;-8.52;81.35;98317.17;421622;1310;106288;-40
2021/12/25 18:17:21;;;;;;;255.10;108.10;;;;;;;-8.61;81.11;98316.66;421464;1309;97930;-39
2021/12/25 18:27:25;;;;;;;280.70;118.80;;;;;;;-8.70;81.64;98309.86;421517;1316;111149;-39
2021/12/25 18:37:28;;;;;;;267.10;114.90;;;;;;;-8.73;81.63;98319.27;421541;1312;109568;-40
2021/12/25 18:47:32;;;;;;;258.10;109.60;;;;;;;-8.84;81.47;98324.20;421573;1312;97951;-40
2021/12/25 18:57:37;;;;;;;231.10;109.40;;;;;;;-8.82;81.56;98330.91;420425;1312;108941;-40
2021/12/25 19:07:42;;;;;;;214.70;100.90;;;;;;;-8.90;81.34;98331.68;420277;1312;97602;-39
2021/12/25 19:17:46;;;;;;;258.00;117.60;;;;;;;-9.11;81.53;98333.94;420733;1312;111223;-38
2021/12/25 19:27:51;;;;;;;281.30;124.40;;;;;;;-9.12;81.48;98341.34;420453;1312;108658;-42
2021/12/25 19:37:54;;;;;;;346.20;139.30;;;;;;;-9.41;80.82;98342.79;421391;1312;97929;-40
2021/12/25 19:47:59;;;;;;;305.70;130.40;;;;;;;-9.59;81.41;98345.62;421523;1311;109459;-41
2021/12/25 19:58:05;;;;;;;338.70;138.90;;;;;;;-9.52;81.60;98347.20;421469;1313;98423;-39
2021/12/25 20:08:09;;;;;;;309.30;128.90;;;;;;;-9.47;81.44;98365.41;421541;1312;111096;-41
2021/12/25 20:18:13;;;;;;;307.30;124.20;;;;;;;-9.55;81.26;98374.21;421274;1312;109012;-40
2021/12/25 20:38:21;;;;;;;328.00;131.00;;;;;;;-9.91;81.16;98383.38;421411;1316;109504;-40
2021/12/25 20:48:32;;;;;;;294.00;119.00;;;;;;;-9.90;81.04;98383.02;421552;1315;97662;-39
2021/12/25 20:58:36;;;;;;;294.00;119.40;;;;;;;-9.87;81.24;98384.71;421520;1312;110046;-39
2021/12/25 21:08:41;;;;;;;305.30;122.10;;;;;;;-10.01;81.11;98383.45;421575;1309;108918;-38
2021/12/25 21:18:45;;;;;;;287.20;116.50;;;;;;;-9.91;81.52;98402.16;421416;1315;98079;-40
2021/12/25 21:28:48;;;;;;;291.40;115.60;;;;;;;-9.85;80.93;98402.06;421601;1310;109192;-40
2021/12/25 21:38:51;;;;;;;248.50;101.60;;;;;;;-10.26;80.40;98402.59;421530;1315;97078;-39
2021/12/25 21:48:54;;;;;;;228.90;93.90;;;;;;;-10.59;80.41;98411.78;420441;1312;111234;-39
2021/12/25 21:58:58;;;;;;;199.30;83.30;;;;;;;-10.61;80.80;98418.95;420333;1312;108862;-40
2021/12/25 22:09:04;;;;;;;211.40;91.10;;;;;;;-10.81;80.78;98415.05;420235;1312;98015;-41
2021/12/25 22:19:07;;;;;;;245.60;103.10;;;;;;;-10.78;81.14;98413.41;421688;1315;108881;-39
2021/12/25 22:29:12;;;;;;;173.30;71.00;;;;;;;-10.70;81.19;98415.08;421438;1313;97550;-43
2021/12/25 22:39:16;;;;;;;252.20;95.80;;;;;;;-10.67;81.30;98412.00;421390;1313;111041;-39
2021/12/25 22:49:20;;;;;;;619.70;252.10;;;;;;;-10.65;81.19;98403.54;421415;1315;107621;-41
2021/12/25 23:19:31;;;;;;;413.70;169.40;;;;;;;-10.71;80.99;98403.59;421637;1315;96749;-40
2021/12/25 23:29:35;;;;;;;371.20;143.30;;;;;;;-10.84;80.82;98400.55;421482;1315;111128;-40
2021/12/25 23:39:39;;;;;;;391.20;148.20;;;;;;;-11.00;80.79;98399.25;421503;1313;108877;-40
2021/12/25 23:49:42;;;;;;;384.20;151.90;;;;;;;-11.22;80.88;98405.20;421536;1315;97981;-40
2021/12/25 23:59:47;;;;;;;367.70;147.40;;;;;;;-11.24;81.07;98399.27;421339;1315;109480;-38
